sensor_id;sensor_type;location;lat;lon;timestamp;temperature;humidity
40151;DHT22;25866;52.420;10.640;2023-03-12T00:02:13;0.10;99.90
40151;DHT22;25866;52.420;10.640;2023-03-12T00:04:38;0.10;99.90
40151;DHT22;25866;52.420;10.640;2023-03-12T00:07:04;0.10;99.90
40151;DHT22;25866;52.420;10.640;2023-03-12T00:09:34;0.10;99.90
40151;DHT22;25866;52.420;10.640;2023-03-12T00:12:01;0.10;99.90
40151;DHT22;25866;52.420;10.640;2023-03-12T00:14:27;0.10;99.90
40151;DHT22;25866;52.420;10.640;2023-03-12T00:16:52;0.10;99.90
40151;DHT22;25866;52.420;10.640;2023-03-12T00:19:20;0.10;99.90
40151;DHT22;25866;52.420;10.640;2023-03-12T00:21:45;0.20;99.90
40151;DHT22;25866;52.420;10.640;2023-03-12T00:24:11;0.20;99.90
40151;DHT22;25866;52.420;10.640;2023-03-12T00:26:37;0.10;99.90
40151;DHT22;25866;52.420;10.640;2023-03-12T00:29:02;0.10;99.90
40151;DHT22;25866;52.420;10.640;2023-03-12T00:31:30;0.10;99.90
40151;DHT22;25866;52.420;10.640;2023-03-12T00:33:58;0.10;99.90
40151;DHT22;25866;52.420;10.640;2023-03-12T00:36:26;0.10;99.90
40151;DHT22;25866;52.420;10.640;2023-03-12T00:38:52;0.10;99.90
40151;DHT22;25866;52.420;10.640;2023-03-12T00:41:19;0.10;99.90
40151;DHT22;25866;52.420;10.640;2023-03-12T00:43:46;0.10;99.90
40151;DHT22;25866;52.420;10.640;2023-03-12T00:46:12;0.10;99.90
40151;DHT22;25866;52.420;10.640;2023-03-12T00:48:40;0.10;99.90
40151;DHT22;25866;52.420;10.640;2023-03-12T00:51:06;0.10;99.90
40151;DHT22;25866;52.420;10.640;2023-03-12T00:53:32;0.10;99.90
40151;DHT22;25866;52.420;10.640;2023-03-12T00:55:57;0.10;99.90
40151;DHT22;25866;52.420;10.640;2023-03-12T00:58:23;0.10;99.90
40151;DHT22;25866;52.420;10.640;2023-03-12T01:00:49;0.20;99.90
40151;DHT22;25866;52.420;10.640;2023-03-12T01:03:14;0.20;99.90
40151;DHT22;25866;52.420;10.640;2023-03-12T01:05:40;0.20;99.90
40151;DHT22;25866;52.420;10.640;2023-03-12T01:08:07;0.20;99.90
40151;DHT22;25866;52.420;10.640;2023-03-12T01:10:33;0.20;99.90
40151;DHT22;25866;52.420;10.640;2023-03-12T01:12:59;0.20;99.90
40151;DHT22;25866;52.420;10.640;2023-03-12T01:15:26;0.10;99.90
40151;DHT22;25866;52.420;10.640;2023-03-12T01:17:52;0.20;99.90
40151;DHT22;25866;52.420;10.640;2023-03-12T01:20:18;0.10;99.90
40151;DHT22;25866;52.420;10.640;2023-03-12T01:22:43;0.10;99.90
40151;DHT22;25866;52.420;10.640;2023-03-12T01:25:10;0.10;99.90
40151;DHT22;25866;52.420;10.640;2023-03-12T01:27:36;0.10;99.90
40151;DHT22;25866;52.420;10.640;2023-03-12T01:30:03;0.10;99.90
40151;DHT22;25866;52.420;10.640;2023-03-12T01:32:29;0.10;99.90
40151;DHT22;25866;52.420;10.640;2023-03-12T01:34:56;0.10;99.90
40151;DHT22;25866;52.420;10.640;2023-03-12T01:37:22;0.00;99.90
40151;DHT22;25866;52.420;10.640;2023-03-12T01:39:48;0.00;99.90
40151;DHT22;25866;52.420;10.640;2023-03-12T01:42:13;0.00;99.90
40151;DHT22;25866;52.420;10.640;2023-03-12T01:44:55;0.00;99.90
40151;DHT22;25866;52.420;10.640;2023-03-12T01:47:22;0.00;99.90
40151;DHT22;25866;52.420;10.640;2023-03-12T01:49:51;0.00;99.90
40151;DHT22;25866;52.420;10.640;2023-03-12T01:52:27;-0.10;99.90
40151;DHT22;25866;52.420;10.640;2023-03-12T01:55:00;-0.10;99.90
40151;DHT22;25866;52.420;10.640;2023-03-12T01:57:36;-0.10;99.90
40151;DHT22;25866;52.420;10.640;2023-03-12T02:00:22;-0.10;99.90
40151;DHT22;25866;52.420;10.640;2023-03-12T02:02:51;-0.10;99.90
40151;DHT22;25866;52.420;10.640;2023-03-12T02:05:27;-0.10;99.90
40151;DHT22;25866;52.420;10.640;2023-03-12T02:07:54;-0.10;99.90
40151;DHT22;25866;52.420;10.640;2023-03-12T02:10:22;-0.10;99.90
40151;DHT22;25866;52.420;10.640;2023-03-12T02:12:48;-0.20;99.90
40151;DHT22;25866;52.420;10.640;2023-03-12T02:15:14;-0.20;99.90
40151;DHT22;25866;52.420;10.640;2023-03-12T02:17:39;-0.20;99.90
40151;DHT22;25866;52.420;10.640;2023-03-12T02:20:22;-0.20;99.90
40151;DHT22;25866;52.420;10.640;2023-03-12T02:23:09;-0.20;99.90
40151;DHT22;25866;52.420;10.640;2023-03-12T02:25:43;-0.20;99.90
40151;DHT22;25866;52.420;10.640;2023-03-12T02:28:12;-0.20;99.90
40151;DHT22;25866;52.420;10.640;2023-03-12T02:30:40;-0.20;99.90
40151;DHT22;25866;52.420;10.640;2023-03-12T02:33:11;-0.30;99.90
40151;DHT22;25866;52.420;10.640;2023-03-12T02:35:37;-0.30;99.90
40151;DHT22;25866;52.420;10.640;2023-03-12T02:38:36;-0.30;99.90
40151;DHT22;25866;52.420;10.640;2023-03-12T02:41:12;-0.30;99.90
40151;DHT22;25866;52.420;10.640;2023-03-12T02:43:39;-0.30;99.90
40151;DHT22;25866;52.420;10.640;2023-03-12T02:46:07;-0.30;99.90
40151;DHT22;25866;52.420;10.640;2023-03-12T02:48:33;-0.30;99.90
40151;DHT22;25866;52.420;10.640;2023-03-12T02:50:59;-0.30;99.90
40151;DHT22;25866;52.420;10.640;2023-03-12T02:53:24;-0.40;99.90
40151;DHT22;25866;52.420;10.640;2023-03-12T02:55:50;-0.30;99.90
40151;DHT22;25866;52.420;10.640;2023-03-12T02:58:16;-0.40;99.90
40151;DHT22;25866;52.420;10.640;2023-03-12T03:00:41;-0.40;99.90
40151;DHT22;25866;52.420;10.640;2023-03-12T03:03:07;-0.40;99.90
40151;DHT22;25866;52.420;10.640;2023-03-12T03:05:33;-0.50;99.90
40151;DHT22;25866;52.420;10.640;2023-03-12T03:08:01;-0.50;99.90
40151;DHT22;25866;52.420;10.640;2023-03-12T03:10:27;-0.50;99.90
40151;DHT22;25866;52.420;10.640;2023-03-12T03:12:53;-0.60;99.90
40151;DHT22;25866;52.420;10.640;2023-03-12T03:15:19;-0.60;99.90
40151;DHT22;25866;52.420;10.640;2023-03-12T03:17:44;-0.60;99.90
40151;DHT22;25866;52.420;10.640;2023-03-12T03:20:10;-0.60;99.90
40151;DHT22;25866;52.420;10.640;2023-03-12T03:22:37;-0.60;99.90
40151;DHT22;25866;52.420;10.640;2023-03-12T03:25:04;-0.60;99.90
40151;DHT22;25866;52.420;10.640;2023-03-12T03:27:31;-0.60;99.90
40151;DHT22;25866;52.420;10.640;2023-03-12T03:29:56;-0.60;99.90
40151;DHT22;25866;52.420;10.640;2023-03-12T03:32:22;-0.60;99.90
40151;DHT22;25866;52.420;10.640;2023-03-12T03:34:48;-0.60;99.90
40151;DHT22;25866;52.420;10.640;2023-03-12T03:37:13;-0.60;99.90
40151;DHT22;25866;52.420;10.640;2023-03-12T03:39:39;-0.60;99.90
40151;DHT22;25866;52.420;10.640;2023-03-12T03:42:04;-0.60;99.90
40151;DHT22;25866;52.420;10.640;2023-03-12T03:44:30;-0.70;99.90
40151;DHT22;25866;52.420;10.640;2023-03-12T03:46:56;-0.70;99.90
40151;DHT22;25866;52.420;10.640;2023-03-12T03:49:22;-0.70;99.90
40151;DHT22;25866;52.420;10.640;2023-03-12T03:51:48;-0.70;99.90
40151;DHT22;25866;52.420;10.640;2023-03-12T03:54:16;-0.70;99.90
40151;DHT22;25866;52.420;10.640;2023-03-12T03:56:42;-0.70;99.90
40151;DHT22;25866;52.420;10.640;2023-03-12T03:59:08;-0.70;99.90
40151;DHT22;25866;52.420;10.640;2023-03-12T04:01:34;-0.70;99.90
40151;DHT22;25866;52.420;10.640;2023-03-12T04:04:01;-0.70;99.90
40151;DHT22;25866;52.420;10.640;2023-03-12T04:06:27;-0.70;99.90
40151;DHT22;25866;52.420;10.640;2023-03-12T04:08:55;-0.80;99.90
40151;DHT22;25866;52.420;10.640;2023-03-12T04:11:21;-0.80;99.90
40151;DHT22;25866;52.420;10.640;2023-03-12T04:13:47;-0.80;99.90
40151;DHT22;25866;52.420;10.640;2023-03-12T04:16:13;-0.80;99.90
40151;DHT22;25866;52.420;10.640;2023-03-12T04:18:39;-0.80;99.90
40151;DHT22;25866;52.420;10.640;2023-03-12T04:21:07;-0.80;99.90
40151;DHT22;25866;52.420;10.640;2023-03-12T04:23:34;-0.90;99.90
40151;DHT22;25866;52.420;10.640;2023-03-12T04:26:00;-0.90;99.90
40151;DHT22;25866;52.420;10.640;2023-03-12T04:28:25;-0.90;99.90
40151;DHT22;25866;52.420;10.640;2023-03-12T04:30:59;-0.90;99.90
40151;DHT22;25866;52.420;10.640;2023-03-12T04:33:27;-0.90;99.90
40151;DHT22;25866;52.420;10.640;2023-03-12T04:35:52;-0.90;99.90
40151;DHT22;25866;52.420;10.640;2023-03-12T04:38:23;-1.00;99.90
40151;DHT22;25866;52.420;10.640;2023-03-12T04:41:03;-1.00;99.90
40151;DHT22;25866;52.420;10.640;2023-03-12T04:43:30;-1.00;99.90
40151;DHT22;25866;52.420;10.640;2023-03-12T04:45:56;-1.00;99.90
40151;DHT22;25866;52.420;10.640;2023-03-12T04:48:23;-1.00;99.90
40151;DHT22;25866;52.420;10.640;2023-03-12T04:50:49;-1.00;99.90
40151;DHT22;25866;52.420;10.640;2023-03-12T04:53:15;-1.10;99.90
40151;DHT22;25866;52.420;10.640;2023-03-12T04:55:41;-1.10;99.90
40151;DHT22;25866;52.420;10.640;2023-03-12T04:58:06;-1.10;99.90
40151;DHT22;25866;52.420;10.640;2023-03-12T05:00:32;-1.10;99.90
40151;DHT22;25866;52.420;10.640;2023-03-12T05:02:58;-1.20;99.90
40151;DHT22;25866;52.420;10.640;2023-03-12T05:05:23;-1.20;99.90
40151;DHT22;25866;52.420;10.640;2023-03-12T05:07:49;-1.20;99.90
40151;DHT22;25866;52.420;10.640;2023-03-12T05:10:15;-1.20;99.90
40151;DHT22;25866;52.420;10.640;2023-03-12T05:12:41;-1.20;99.90
40151;DHT22;25866;52.420;10.640;2023-03-12T05:15:07;-1.20;99.90
40151;DHT22;25866;52.420;10.640;2023-03-12T05:17:32;-1.20;99.90
40151;DHT22;25866;52.420;10.640;2023-03-12T05:19:58;-1.20;99.90
40151;DHT22;25866;52.420;10.640;2023-03-12T05:22:24;-1.30;99.90
40151;DHT22;25866;52.420;10.640;2023-03-12T05:24:50;-1.20;99.90
40151;DHT22;25866;52.420;10.640;2023-03-12T05:27:15;-1.20;99.90
40151;DHT22;25866;52.420;10.640;2023-03-12T05:29:41;-1.20;99.90
40151;DHT22;25866;52.420;10.640;2023-03-12T05:32:07;-1.20;99.90
40151;DHT22;25866;52.420;10.640;2023-03-12T05:34:33;-1.20;99.90
40151;DHT22;25866;52.420;10.640;2023-03-12T05:36:59;-1.30;99.90
40151;DHT22;25866;52.420;10.640;2023-03-12T05:39:25;-1.30;99.90
40151;DHT22;25866;52.420;10.640;2023-03-12T05:41:52;-1.30;99.90
40151;DHT22;25866;52.420;10.640;2023-03-12T05:44:23;-1.20;99.90
40151;DHT22;25866;52.420;10.640;2023-03-12T05:46:49;-1.30;99.90
40151;DHT22;25866;52.420;10.640;2023-03-12T05:49:15;-1.20;99.90
40151;DHT22;25866;52.420;10.640;2023-03-12T05:51:41;-1.30;99.90
40151;DHT22;25866;52.420;10.640;2023-03-12T05:54:08;-1.20;99.90
40151;DHT22;25866;52.420;10.640;2023-03-12T05:56:35;-1.20;99.90
40151;DHT22;25866;52.420;10.640;2023-03-12T05:59:01;-1.20;99.90
40151;DHT22;25866;52.420;10.640;2023-03-12T06:01:28;-1.20;99.90
40151;DHT22;25866;52.420;10.640;2023-03-12T06:03:54;-1.20;99.90
40151;DHT22;25866;52.420;10.640;2023-03-12T06:06:20;-1.10;99.90
40151;DHT22;25866;52.420;10.640;2023-03-12T06:08:46;-1.10;99.90
40151;DHT22;25866;52.420;10.640;2023-03-12T06:11:12;-1.00;99.90
40151;DHT22;25866;52.420;10.640;2023-03-12T06:13:38;-1.00;99.90
40151;DHT22;25866;52.420;10.640;2023-03-12T06:16:05;-0.90;99.90
40151;DHT22;25866;52.420;10.640;2023-03-12T06:18:32;-0.90;99.90
40151;DHT22;25866;52.420;10.640;2023-03-12T06:21:13;-0.90;99.90
40151;DHT22;25866;52.420;10.640;2023-03-12T06:23:40;-0.80;99.90
40151;DHT22;25866;52.420;10.640;2023-03-12T06:26:07;-0.80;99.90
40151;DHT22;25866;52.420;10.640;2023-03-12T06:28:34;-0.70;99.90
40151;DHT22;25866;52.420;10.640;2023-03-12T06:31:00;-0.60;99.90
40151;DHT22;25866;52.420;10.640;2023-03-12T06:33:25;-0.60;99.90
40151;DHT22;25866;52.420;10.640;2023-03-12T06:35:56;-0.50;99.90
40151;DHT22;25866;52.420;10.640;2023-03-12T06:38:22;-0.50;99.90
40151;DHT22;25866;52.420;10.640;2023-03-12T06:41:00;-0.50;99.90
40151;DHT22;25866;52.420;10.640;2023-03-12T06:43:27;-0.30;99.90
40151;DHT22;25866;52.420;10.640;2023-03-12T06:45:54;-0.30;99.90
40151;DHT22;25866;52.420;10.640;2023-03-12T06:48:21;-0.20;99.90
40151;DHT22;25866;52.420;10.640;2023-03-12T06:50:47;-0.10;99.90
40151;DHT22;25866;52.420;10.640;2023-03-12T06:53:12;-0.10;99.90
40151;DHT22;25866;52.420;10.640;2023-03-12T06:55:38;0.00;99.90
40151;DHT22;25866;52.420;10.640;2023-03-12T06:58:04;0.10;99.90
40151;DHT22;25866;52.420;10.640;2023-03-12T07:00:31;0.10;99.90
40151;DHT22;25866;52.420;10.640;2023-03-12T07:02:57;0.20;99.90
40151;DHT22;25866;52.420;10.640;2023-03-12T07:05:23;0.30;99.90
40151;DHT22;25866;52.420;10.640;2023-03-12T07:07:50;0.30;99.90
40151;DHT22;25866;52.420;10.640;2023-03-12T07:10:16;0.40;99.90
40151;DHT22;25866;52.420;10.640;2023-03-12T07:12:43;0.50;99.90
40151;DHT22;25866;52.420;10.640;2023-03-12T07:15:09;0.50;99.90
40151;DHT22;25866;52.420;10.640;2023-03-12T07:17:34;0.50;99.90
40151;DHT22;25866;52.420;10.640;2023-03-12T07:20:00;0.60;99.90
40151;DHT22;25866;52.420;10.640;2023-03-12T07:22:26;0.60;99.90
40151;DHT22;25866;52.420;10.640;2023-03-12T07:24:52;0.70;99.90
40151;DHT22;25866;52.420;10.640;2023-03-12T07:27:17;0.70;99.90
40151;DHT22;25866;52.420;10.640;2023-03-12T07:29:43;0.80;99.90
40151;DHT22;25866;52.420;10.640;2023-03-12T07:32:09;0.90;99.90
40151;DHT22;25866;52.420;10.640;2023-03-12T07:34:34;0.90;99.90
40151;DHT22;25866;52.420;10.640;2023-03-12T07:37:00;1.00;99.90
40151;DHT22;25866;52.420;10.640;2023-03-12T07:39:26;1.10;99.90
40151;DHT22;25866;52.420;10.640;2023-03-12T07:41:51;1.20;99.90
40151;DHT22;25866;52.420;10.640;2023-03-12T07:44:17;1.40;99.90
40151;DHT22;25866;52.420;10.640;2023-03-12T07:46:43;1.60;99.90
40151;DHT22;25866;52.420;10.640;2023-03-12T07:49:08;1.80;99.90
40151;DHT22;25866;52.420;10.640;2023-03-12T07:51:34;1.90;99.90
40151;DHT22;25866;52.420;10.640;2023-03-12T07:54:00;1.90;99.90
40151;DHT22;25866;52.420;10.640;2023-03-12T07:56:25;2.00;99.90
40151;DHT22;25866;52.420;10.640;2023-03-12T07:58:51;1.90;99.90
40151;DHT22;25866;52.420;10.640;2023-03-12T08:01:17;1.90;99.90
40151;DHT22;25866;52.420;10.640;2023-03-12T08:03:42;1.90;99.90
40151;DHT22;25866;52.420;10.640;2023-03-12T08:06:08;1.90;99.90
40151;DHT22;25866;52.420;10.640;2023-03-12T08:08:34;2.00;99.90
40151;DHT22;25866;52.420;10.640;2023-03-12T08:11:03;2.00;99.90
40151;DHT22;25866;52.420;10.640;2023-03-12T08:13:29;2.00;99.90
40151;DHT22;25866;52.420;10.640;2023-03-12T08:15:56;2.10;99.90
40151;DHT22;25866;52.420;10.640;2023-03-12T08:18:22;2.20;99.90
40151;DHT22;25866;52.420;10.640;2023-03-12T08:20:50;2.30;99.90
40151;DHT22;25866;52.420;10.640;2023-03-12T08:23:16;2.40;99.90
40151;DHT22;25866;52.420;10.640;2023-03-12T08:25:46;2.40;99.90
40151;DHT22;25866;52.420;10.640;2023-03-12T08:28:13;2.40;99.90
40151;DHT22;25866;52.420;10.640;2023-03-12T08:30:47;2.40;99.90
40151;DHT22;25866;52.420;10.640;2023-03-12T08:33:16;2.50;99.90
40151;DHT22;25866;52.420;10.640;2023-03-12T08:35:42;2.50;99.90
40151;DHT22;25866;52.420;10.640;2023-03-12T08:38:08;2.60;99.90
40151;DHT22;25866;52.420;10.640;2023-03-12T08:40:34;2.70;99.90
40151;DHT22;25866;52.420;10.640;2023-03-12T08:42:59;2.80;99.90
40151;DHT22;25866;52.420;10.640;2023-03-12T08:45:25;2.80;99.90
40151;DHT22;25866;52.420;10.640;2023-03-12T08:47:51;2.90;99.90
40151;DHT22;25866;52.420;10.640;2023-03-12T08:50:17;2.90;99.90
40151;DHT22;25866;52.420;10.640;2023-03-12T08:52:44;3.00;99.90
40151;DHT22;25866;52.420;10.640;2023-03-12T08:55:10;3.10;99.90
40151;DHT22;25866;52.420;10.640;2023-03-12T08:57:37;3.20;99.90
40151;DHT22;25866;52.420;10.640;2023-03-12T09:00:04;3.20;99.90
40151;DHT22;25866;52.420;10.640;2023-03-12T09:02:31;3.30;99.90
40151;DHT22;25866;52.420;10.640;2023-03-12T09:04:57;3.30;99.90
40151;DHT22;25866;52.420;10.640;2023-03-12T09:07:23;3.40;99.90
40151;DHT22;25866;52.420;10.640;2023-03-12T09:09:48;3.50;99.90
40151;DHT22;25866;52.420;10.640;2023-03-12T09:12:14;3.50;99.90
40151;DHT22;25866;52.420;10.640;2023-03-12T09:14:40;3.50;99.90
40151;DHT22;25866;52.420;10.640;2023-03-12T09:17:05;3.50;99.90
40151;DHT22;25866;52.420;10.640;2023-03-12T09:19:31;3.50;99.90
40151;DHT22;25866;52.420;10.640;2023-03-12T09:21:57;3.60;99.90
40151;DHT22;25866;52.420;10.640;2023-03-12T09:24:23;3.60;99.90
40151;DHT22;25866;52.420;10.640;2023-03-12T09:26:49;3.70;99.90
40151;DHT22;25866;52.420;10.640;2023-03-12T09:29:15;3.80;99.90
40151;DHT22;25866;52.420;10.640;2023-03-12T09:31:40;3.90;99.90
40151;DHT22;25866;52.420;10.640;2023-03-12T09:34:06;4.00;99.90
40151;DHT22;25866;52.420;10.640;2023-03-12T09:36:32;4.10;99.90
40151;DHT22;25866;52.420;10.640;2023-03-12T09:38:58;4.20;99.90
40151;DHT22;25866;52.420;10.640;2023-03-12T09:41:29;4.30;99.90
40151;DHT22;25866;52.420;10.640;2023-03-12T09:44:19;4.30;99.90
40151;DHT22;25866;52.420;10.640;2023-03-12T09:49:51;4.40;99.90
40151;DHT22;25866;52.420;10.640;2023-03-12T09:52:23;4.50;99.90
40151;DHT22;25866;52.420;10.640;2023-03-12T09:55:13;4.50;99.90
40151;DHT22;25866;52.420;10.640;2023-03-12T09:57:39;4.60;99.90
40151;DHT22;25866;52.420;10.640;2023-03-12T10:00:10;4.80;99.90
40151;DHT22;25866;52.420;10.640;2023-03-12T10:05:39;4.80;99.90
40151;DHT22;25866;52.420;10.640;2023-03-12T10:10:53;4.90;99.90
40151;DHT22;25866;52.420;10.640;2023-03-12T10:14:02;4.80;99.90
40151;DHT22;25866;52.420;10.640;2023-03-12T10:22:32;4.80;99.90
40151;DHT22;25866;52.420;10.640;2023-03-12T10:27:49;4.90;99.90
40151;DHT22;25866;52.420;10.640;2023-03-12T10:30:21;4.90;99.90
40151;DHT22;25866;52.420;10.640;2023-03-12T10:33:02;4.90;99.90
40151;DHT22;25866;52.420;10.640;2023-03-12T10:35:32;5.10;99.90
40151;DHT22;25866;52.420;10.640;2023-03-12T10:38:03;5.20;99.90
40151;DHT22;25866;52.420;10.640;2023-03-12T10:40:32;5.10;99.90
40151;DHT22;25866;52.420;10.640;2023-03-12T10:43:02;5.20;99.90
40151;DHT22;25866;52.420;10.640;2023-03-12T10:48:22;5.10;99.90
40151;DHT22;25866;52.420;10.640;2023-03-12T10:51:04;5.10;99.90
40151;DHT22;25866;52.420;10.640;2023-03-12T10:53:38;5.10;99.90
40151;DHT22;25866;52.420;10.640;2023-03-12T10:58:43;4.80;99.90
40151;DHT22;25866;52.420;10.640;2023-03-12T11:01:28;4.80;99.90
40151;DHT22;25866;52.420;10.640;2023-03-12T11:04:18;4.80;99.90
40151;DHT22;25866;52.420;10.640;2023-03-12T11:09:40;4.70;99.90
40151;DHT22;25866;52.420;10.640;2023-03-12T11:12:26;4.50;99.90
40151;DHT22;25866;52.420;10.640;2023-03-12T11:14:52;4.50;99.90
40151;DHT22;25866;52.420;10.640;2023-03-12T11:17:26;4.60;99.90
40151;DHT22;25866;52.420;10.640;2023-03-12T11:19:53;4.50;99.90
40151;DHT22;25866;52.420;10.640;2023-03-12T11:22:33;4.50;99.90
40151;DHT22;25866;52.420;10.640;2023-03-12T11:25:05;4.60;99.90
40151;DHT22;25866;52.420;10.640;2023-03-12T11:27:41;4.60;99.90
40151;DHT22;25866;52.420;10.640;2023-03-12T11:30:14;4.60;99.90
40151;DHT22;25866;52.420;10.640;2023-03-12T11:32:44;4.50;99.90
40151;DHT22;25866;52.420;10.640;2023-03-12T11:35:11;4.50;99.90
40151;DHT22;25866;52.420;10.640;2023-03-12T11:38:13;4.50;99.90
40151;DHT22;25866;52.420;10.640;2023-03-12T11:41:21;4.40;99.90
40151;DHT22;25866;52.420;10.640;2023-03-12T11:44:14;4.40;99.90
40151;DHT22;25866;52.420;10.640;2023-03-12T11:52:20;4.30;99.90
40151;DHT22;25866;52.420;10.640;2023-03-12T11:58:41;4.30;99.90
40151;DHT22;25866;52.420;10.640;2023-03-12T12:07:15;4.50;99.90
40151;DHT22;25866;52.420;10.640;2023-03-12T12:09:56;4.60;99.90
40151;DHT22;25866;52.420;10.640;2023-03-12T12:27:25;4.30;99.90
40151;DHT22;25866;52.420;10.640;2023-03-12T12:30:09;4.30;99.90
40151;DHT22;25866;52.420;10.640;2023-03-12T12:35:38;4.20;99.90
40151;DHT22;25866;52.420;10.640;2023-03-12T12:38:26;4.10;99.90
40151;DHT22;25866;52.420;10.640;2023-03-12T12:41:14;4.10;99.90
40151;DHT22;25866;52.420;10.640;2023-03-12T12:43:49;4.20;99.90
40151;DHT22;25866;52.420;10.640;2023-03-12T12:46:21;4.10;99.90
40151;DHT22;25866;52.420;10.640;2023-03-12T12:49:02;4.00;99.90
40151;DHT22;25866;52.420;10.640;2023-03-12T12:51:37;3.80;99.90
40151;DHT22;25866;52.420;10.640;2023-03-12T12:57:19;3.90;99.90
40151;DHT22;25866;52.420;10.640;2023-03-12T12:59:47;3.90;99.90
40151;DHT22;25866;52.420;10.640;2023-03-12T13:02:22;3.90;99.90
40151;DHT22;25866;52.420;10.640;2023-03-12T13:04:55;3.90;99.90
40151;DHT22;25866;52.420;10.640;2023-03-12T13:09:52;3.90;99.90
40151;DHT22;25866;52.420;10.640;2023-03-12T13:12:49;3.80;99.90
40151;DHT22;25866;52.420;10.640;2023-03-12T13:18:04;3.80;99.90
40151;DHT22;25866;52.420;10.640;2023-03-12T13:20:58;3.80;99.90
40151;DHT22;25866;52.420;10.640;2023-03-12T13:28:36;3.90;99.90
40151;DHT22;25866;52.420;10.640;2023-03-12T13:33:50;4.00;99.90
40151;DHT22;25866;52.420;10.640;2023-03-12T13:44:23;3.60;99.90
40151;DHT22;25866;52.420;10.640;2023-03-12T13:49:59;3.40;99.90
40151;DHT22;25866;52.420;10.640;2023-03-12T13:52:26;3.40;99.90
40151;DHT22;25866;52.420;10.640;2023-03-12T13:55:14;3.30;99.90
40151;DHT22;25866;52.420;10.640;2023-03-12T14:00:29;3.30;99.90
40151;DHT22;25866;52.420;10.640;2023-03-12T14:03:00;3.30;99.90
40151;DHT22;25866;52.420;10.640;2023-03-12T14:05:42;3.20;99.90
40151;DHT22;25866;52.420;10.640;2023-03-12T14:10:56;3.20;99.90
40151;DHT22;25866;52.420;10.640;2023-03-12T14:16:42;3.30;99.90
40151;DHT22;25866;52.420;10.640;2023-03-12T14:19:15;3.20;99.90
40151;DHT22;25866;52.420;10.640;2023-03-12T14:21:43;3.10;99.90
40151;DHT22;25866;52.420;10.640;2023-03-12T14:26:50;3.10;99.90
40151;DHT22;25866;52.420;10.640;2023-03-12T14:29:28;3.20;99.90
40151;DHT22;25866;52.420;10.640;2023-03-12T14:32:04;3.10;99.90
40151;DHT22;25866;52.420;10.640;2023-03-12T14:34:39;3.10;99.90
40151;DHT22;25866;52.420;10.640;2023-03-12T14:37:23;3.10;99.90
40151;DHT22;25866;52.420;10.640;2023-03-12T14:40:00;3.10;99.90
40151;DHT22;25866;52.420;10.640;2023-03-12T14:42:30;3.10;99.90
40151;DHT22;25866;52.420;10.640;2023-03-12T14:45:13;3.20;99.90
40151;DHT22;25866;52.420;10.640;2023-03-12T14:47:47;3.10;99.90
40151;DHT22;25866;52.420;10.640;2023-03-12T14:50:29;3.10;99.90
40151;DHT22;25866;52.420;10.640;2023-03-12T14:53:34;3.20;99.90
40151;DHT22;25866;52.420;10.640;2023-03-12T14:56:11;3.20;99.90
40151;DHT22;25866;52.420;10.640;2023-03-12T14:58:49;3.20;99.90
40151;DHT22;25866;52.420;10.640;2023-03-12T15:01:19;3.20;99.90
40151;DHT22;25866;52.420;10.640;2023-03-12T15:03:48;3.20;99.90
40151;DHT22;25866;52.420;10.640;2023-03-12T15:06:43;3.20;99.90
40151;DHT22;25866;52.420;10.640;2023-03-12T15:09:07;3.20;99.90
40151;DHT22;25866;52.420;10.640;2023-03-12T15:11:34;3.20;99.90
40151;DHT22;25866;52.420;10.640;2023-03-12T15:14:04;3.20;99.90
40151;DHT22;25866;52.420;10.640;2023-03-12T15:16:32;3.20;99.90
40151;DHT22;25866;52.420;10.640;2023-03-12T15:18:58;3.20;99.90
40151;DHT22;25866;52.420;10.640;2023-03-12T15:21:24;3.20;99.90
40151;DHT22;25866;52.420;10.640;2023-03-12T15:23:50;3.20;99.90
40151;DHT22;25866;52.420;10.640;2023-03-12T15:31:25;3.20;99.90
40151;DHT22;25866;52.420;10.640;2023-03-12T15:34:03;3.20;99.90
40151;DHT22;25866;52.420;10.640;2023-03-12T15:36:29;3.30;99.90
40151;DHT22;25866;52.420;10.640;2023-03-12T15:39:02;3.20;99.90
40151;DHT22;25866;52.420;10.640;2023-03-12T15:41:50;3.30;99.90
40151;DHT22;25866;52.420;10.640;2023-03-12T15:44:19;3.30;99.90
40151;DHT22;25866;52.420;10.640;2023-03-12T15:46:48;3.30;99.90
40151;DHT22;25866;52.420;10.640;2023-03-12T15:49:25;3.40;99.90
40151;DHT22;25866;52.420;10.640;2023-03-12T15:52:01;3.40;99.90
40151;DHT22;25866;52.420;10.640;2023-03-12T15:54:28;3.40;99.90
40151;DHT22;25866;52.420;10.640;2023-03-12T15:57:10;3.50;99.90
40151;DHT22;25866;52.420;10.640;2023-03-12T15:59:36;3.50;99.90
40151;DHT22;25866;52.420;10.640;2023-03-12T16:02:02;3.50;99.90
40151;DHT22;25866;52.420;10.640;2023-03-12T16:04:27;3.50;99.90
40151;DHT22;25866;52.420;10.640;2023-03-12T16:06:53;3.40;99.90
40151;DHT22;25866;52.420;10.640;2023-03-12T16:09:24;3.40;99.90
40151;DHT22;25866;52.420;10.640;2023-03-12T16:11:53;3.40;99.90
40151;DHT22;25866;52.420;10.640;2023-03-12T16:14:29;3.50;99.90
40151;DHT22;25866;52.420;10.640;2023-03-12T16:16:55;3.50;99.90
40151;DHT22;25866;52.420;10.640;2023-03-12T16:19:22;3.50;99.90
40151;DHT22;25866;52.420;10.640;2023-03-12T16:21:49;3.50;99.90
40151;DHT22;25866;52.420;10.640;2023-03-12T16:24:15;3.50;99.90
40151;DHT22;25866;52.420;10.640;2023-03-12T16:26:55;3.50;99.90
40151;DHT22;25866;52.420;10.640;2023-03-12T16:29:22;3.50;99.90
40151;DHT22;25866;52.420;10.640;2023-03-12T16:31:53;3.50;99.90
40151;DHT22;25866;52.420;10.640;2023-03-12T16:34:19;3.50;99.90
40151;DHT22;25866;52.420;10.640;2023-03-12T16:36:45;3.50;99.90
40151;DHT22;25866;52.420;10.640;2023-03-12T16:39:11;3.50;99.90
40151;DHT22;25866;52.420;10.640;2023-03-12T16:41:37;3.50;99.90
40151;DHT22;25866;52.420;10.640;2023-03-12T16:47:25;3.50;99.90
40151;DHT22;25866;52.420;10.640;2023-03-12T16:49:51;3.60;99.90
40151;DHT22;25866;52.420;10.640;2023-03-12T16:52:21;3.60;99.90
40151;DHT22;25866;52.420;10.640;2023-03-12T16:54:48;3.70;99.90
40151;DHT22;25866;52.420;10.640;2023-03-12T16:57:32;3.70;99.90
40151;DHT22;25866;52.420;10.640;2023-03-12T16:59:59;3.70;99.90
40151;DHT22;25866;52.420;10.640;2023-03-12T17:02:26;3.70;99.90
40151;DHT22;25866;52.420;10.640;2023-03-12T17:04:54;3.70;99.90
40151;DHT22;25866;52.420;10.640;2023-03-12T17:07:20;3.80;99.90
40151;DHT22;25866;52.420;10.640;2023-03-12T17:09:45;3.90;99.90
40151;DHT22;25866;52.420;10.640;2023-03-12T17:12:24;3.90;99.90
40151;DHT22;25866;52.420;10.640;2023-03-12T17:14:52;3.90;99.90
40151;DHT22;25866;52.420;10.640;2023-03-12T17:17:17;3.90;99.90
40151;DHT22;25866;52.420;10.640;2023-03-12T17:19:43;3.90;99.90
40151;DHT22;25866;52.420;10.640;2023-03-12T17:22:09;4.00;99.90
40151;DHT22;25866;52.420;10.640;2023-03-12T17:24:34;4.00;99.90
40151;DHT22;25866;52.420;10.640;2023-03-12T17:27:00;4.10;99.90